LSZR/ACH METAR and TAF weather

Enter ICAO airport designator
Station Type Date Time Source
LSZR METAR 2022/06/27 07:50 UTC NOAA

LSZR 270750Z 30009KT CAVOK 22/17 Q1015 NOSIG RMK D


Station Type Date Time Source
LSZR Decoded METAR 2022/06/27 07:50 UTC NOAA

Saint Gallen-Altenrhein, Switzerland (LSZR) 47-29-06N 009-33-43E
Jun 27, 2022 - 03:50 AM EDT / 2022.06.27 0750 UTC
Wind: from the WNW (300 degrees) at 10 MPH (9 KT):0
Visibility: greater than 7 mile(s):0
Temperature: 71 F (22 C)
Dew Point: 62 F (17 C)
Relative Humidity: 73%
Pressure (altimeter): 29.97 in. Hg (1015 hPa)
ob: LSZR 270750Z 30009KT CAVOK 22/17 Q1015 NOSIG RMK D
cycle: 8

Station Type Date Time Source
LSZR TAF 2014/12/22 20:03 UTC NOAA

TAF
AMD LSZR 222054Z 2220/2224 CNL

Example: see airport list